Terminal Aerodrome Forecast
Issued by NWS Detroit/Pontiac, MI

Home | Current Version | Previous Version | Text Only | Print | Product List | Glossary On
Versions: 1 2 3 4 5 6 7 8 9 10 11 12 13 14 15 16 17 18 19
000
FTUS43 KDTX 300321 AAA
TAFFNT
TAF AMD
KFNT 300321Z 3003/3024 31016G28KT P6SM -SHSN OVC035
     FM300700 32015G25KT P6SM BKN030
     FM301200 32014G22KT P6SM SCT040
     FM302000 30008KT P6SM SCT040 BKN100=

USA.gov is the U.S. government's official web portal to all federal, state and local government web resources and services.